sensor_id;sensor_type;location;lat;lon;timestamp;pressure;altitude;pressure_sealevel;temperature;humidity
54588;BME280;40484;50.198;19.576;2023-06-26T00:02:03;101792.56;;;23.86;40.85
54588;BME280;40484;50.198;19.576;2023-06-26T00:07:04;101800.60;;;23.77;40.92
54588;BME280;40484;50.198;19.576;2023-06-26T00:12:06;101790.45;;;23.58;41.21
54588;BME280;40484;50.198;19.576;2023-06-26T00:17:08;101790.27;;;23.46;41.32
54588;BME280;40484;50.198;19.576;2023-06-26T00:22:09;101790.70;;;23.36;41.52
54588;BME280;40484;50.198;19.576;2023-06-26T00:27:11;101785.70;;;23.22;41.67
54588;BME280;40484;50.198;19.576;2023-06-26T00:32:12;101788.12;;;23.14;41.77
54588;BME280;40484;50.198;19.576;2023-06-26T00:37:14;101791.73;;;23.07;41.78
54588;BME280;40484;50.198;19.576;2023-06-26T00:42:16;101785.91;;;22.99;41.84
54588;BME280;40484;50.198;19.576;2023-06-26T00:47:17;101781.34;;;22.90;41.88
54588;BME280;40484;50.198;19.576;2023-06-26T00:52:19;101779.81;;;22.79;41.90
54588;BME280;40484;50.198;19.576;2023-06-26T00:57:21;101778.55;;;22.73;41.83
54588;BME280;40484;50.198;19.576;2023-06-26T01:02:22;101780.64;;;22.79;41.62
54588;BME280;40484;50.198;19.576;2023-06-26T01:07:24;101777.59;;;22.76;41.53
54588;BME280;40484;50.198;19.576;2023-06-26T01:12:26;101775.68;;;22.70;41.42
54588;BME280;40484;50.198;19.576;2023-06-26T01:17:28;101769.49;;;22.53;41.56
54588;BME280;40484;50.198;19.576;2023-06-26T01:22:45;101770.34;;;22.41;41.66
54588;BME280;40484;50.198;19.576;2023-06-26T01:27:50;101771.58;;;22.29;41.76
54588;BME280;40484;50.198;19.576;2023-06-26T01:33:18;101763.11;;;22.16;41.85
54588;BME280;40484;50.198;19.576;2023-06-26T01:38:21;101758.63;;;22.10;41.92
54588;BME280;40484;50.198;19.576;2023-06-26T01:48:50;101756.09;;;21.91;42.20
54588;BME280;40484;50.198;19.576;2023-06-26T01:53:50;101756.52;;;21.77;42.45
54588;BME280;40484;50.198;19.576;2023-06-26T01:58:51;101750.03;;;21.75;42.42
54588;BME280;40484;50.198;19.576;2023-06-26T02:03:55;101754.59;;;21.72;42.48
54588;BME280;40484;50.198;19.576;2023-06-26T02:08:57;101755.23;;;21.65;42.54
54588;BME280;40484;50.198;19.576;2023-06-26T02:13:58;101741.99;;;21.61;42.56
54588;BME280;40484;50.198;19.576;2023-06-26T02:19:00;101750.16;;;21.57;42.57
54588;BME280;40484;50.198;19.576;2023-06-26T02:24:02;101746.20;;;21.49;42.63
54588;BME280;40484;50.198;19.576;2023-06-26T02:29:03;101748.30;;;21.49;42.61
54588;BME280;40484;50.198;19.576;2023-06-26T02:34:05;101749.73;;;21.44;42.64
54588;BME280;40484;50.198;19.576;2023-06-26T02:39:06;101735.41;;;21.35;42.74
54588;BME280;40484;50.198;19.576;2023-06-26T02:44:08;101746.47;;;21.18;43.00
54588;BME280;40484;50.198;19.576;2023-06-26T02:49:09;101744.27;;;21.14;43.08
54588;BME280;40484;50.198;19.576;2023-06-26T02:54:11;101748.34;;;21.12;43.17
54588;BME280;40484;50.198;19.576;2023-06-26T02:59:38;101754.23;;;21.05;43.29
54588;BME280;40484;50.198;19.576;2023-06-26T03:04:40;101756.34;;;20.98;43.46
54588;BME280;40484;50.198;19.576;2023-06-26T03:09:43;101750.41;;;20.98;43.51
54588;BME280;40484;50.198;19.576;2023-06-26T03:14:45;101750.77;;;20.94;43.58
54588;BME280;40484;50.198;19.576;2023-06-26T03:19:47;101744.91;;;21.07;43.49
54588;BME280;40484;50.198;19.576;2023-06-26T03:24:48;101752.36;;;21.11;43.45
54588;BME280;40484;50.198;19.576;2023-06-26T03:29:51;101748.75;;;21.12;43.42
54588;BME280;40484;50.198;19.576;2023-06-26T03:34:52;101751.26;;;21.13;43.51
54588;BME280;40484;50.198;19.576;2023-06-26T03:39:57;101750.21;;;21.20;43.55
54588;BME280;40484;50.198;19.576;2023-06-26T03:44:59;101752.78;;;21.26;43.50
54588;BME280;40484;50.198;19.576;2023-06-26T03:50:00;101750.74;;;21.31;43.57
54588;BME280;40484;50.198;19.576;2023-06-26T03:55:02;101760.24;;;21.39;43.57
54588;BME280;40484;50.198;19.576;2023-06-26T04:00:04;101760.39;;;21.48;43.57
54588;BME280;40484;50.198;19.576;2023-06-26T04:05:15;101765.33;;;21.53;43.70
54588;BME280;40484;50.198;19.576;2023-06-26T04:10:18;101763.05;;;21.65;43.61
54588;BME280;40484;50.198;19.576;2023-06-26T04:15:19;101756.50;;;21.98;43.37
54588;BME280;40484;50.198;19.576;2023-06-26T04:20:21;101763.60;;;22.21;43.37
54588;BME280;40484;50.198;19.576;2023-06-26T04:25:22;101754.29;;;22.27;43.87
54588;BME280;40484;50.198;19.576;2023-06-26T04:30:24;101752.02;;;22.31;43.97
54588;BME280;40484;50.198;19.576;2023-06-26T04:35:50;101749.00;;;22.40;44.10
54588;BME280;40484;50.198;19.576;2023-06-26T04:40:52;101747.49;;;22.52;44.53
54588;BME280;40484;50.198;19.576;2023-06-26T04:45:54;101746.91;;;22.68;44.58
54588;BME280;40484;50.198;19.576;2023-06-26T04:50:55;101741.34;;;22.88;43.97
54588;BME280;40484;50.198;19.576;2023-06-26T04:55:57;101749.40;;;23.22;43.67
54588;BME280;40484;50.198;19.576;2023-06-26T05:00:58;101753.98;;;23.36;43.15
54588;BME280;40484;50.198;19.576;2023-06-26T05:06:00;101751.71;;;23.29;42.94
54588;BME280;40484;50.198;19.576;2023-06-26T05:11:01;101755.70;;;23.24;42.91
54588;BME280;40484;50.198;19.576;2023-06-26T05:16:03;101756.21;;;23.23;42.17
54588;BME280;40484;50.198;19.576;2023-06-26T05:21:05;101752.78;;;23.51;42.20
54588;BME280;40484;50.198;19.576;2023-06-26T05:26:06;101754.20;;;23.42;41.28
54588;BME280;40484;50.198;19.576;2023-06-26T05:31:08;101762.63;;;23.32;40.78
54588;BME280;40484;50.198;19.576;2023-06-26T05:36:11;101757.73;;;23.38;40.30
54588;BME280;40484;50.198;19.576;2023-06-26T05:41:14;101759.17;;;23.45;40.48
54588;BME280;40484;50.198;19.576;2023-06-26T05:46:16;101756.82;;;23.40;40.40
54588;BME280;40484;50.198;19.576;2023-06-26T05:51:18;101756.60;;;23.34;40.95
54588;BME280;40484;50.198;19.576;2023-06-26T05:56:20;101758.61;;;23.48;40.69
54588;BME280;40484;50.198;19.576;2023-06-26T06:01:21;101754.26;;;23.51;40.41
54588;BME280;40484;50.198;19.576;2023-06-26T06:06:23;101755.45;;;23.47;40.78
54588;BME280;40484;50.198;19.576;2023-06-26T06:11:25;101750.30;;;23.87;40.92
54588;BME280;40484;50.198;19.576;2023-06-26T06:16:26;101755.04;;;24.11;40.76
54588;BME280;40484;50.198;19.576;2023-06-26T06:21:54;101754.52;;;24.19;39.97
54588;BME280;40484;50.198;19.576;2023-06-26T06:26:56;101758.22;;;24.16;38.97
54588;BME280;40484;50.198;19.576;2023-06-26T06:31:57;101758.06;;;24.04;39.43
54588;BME280;40484;50.198;19.576;2023-06-26T06:36:59;101754.52;;;24.19;39.29
54588;BME280;40484;50.198;19.576;2023-06-26T06:42:01;101753.13;;;24.42;39.89
54588;BME280;40484;50.198;19.576;2023-06-26T06:47:02;101753.17;;;24.60;38.80
54588;BME280;40484;50.198;19.576;2023-06-26T06:52:04;101754.78;;;24.72;38.39
54588;BME280;40484;50.198;19.576;2023-06-26T06:57:06;101754.20;;;24.66;39.28
54588;BME280;40484;50.198;19.576;2023-06-26T07:02:08;101753.74;;;25.00;38.88
54588;BME280;40484;50.198;19.576;2023-06-26T07:07:09;101759.52;;;24.94;37.69
54588;BME280;40484;50.198;19.576;2023-06-26T07:12:11;101758.77;;;24.88;37.85
54588;BME280;40484;50.198;19.576;2023-06-26T07:17:12;101752.47;;;25.15;37.47
54588;BME280;40484;50.198;19.576;2023-06-26T07:22:14;101753.38;;;25.27;37.33
54588;BME280;40484;50.198;19.576;2023-06-26T07:27:15;101751.95;;;25.35;36.23
54588;BME280;40484;50.198;19.576;2023-06-26T07:32:17;101753.50;;;25.56;36.33
54588;BME280;40484;50.198;19.576;2023-06-26T07:37:18;101748.30;;;25.45;35.93
54588;BME280;40484;50.198;19.576;2023-06-26T07:42:20;101753.43;;;25.44;35.27
54588;BME280;40484;50.198;19.576;2023-06-26T07:47:21;101749.61;;;25.48;37.16
54588;BME280;40484;50.198;19.576;2023-06-26T07:52:23;101748.62;;;26.17;36.56
54588;BME280;40484;50.198;19.576;2023-06-26T07:57:25;101742.50;;;26.20;35.10
54588;BME280;40484;50.198;19.576;2023-06-26T08:02:26;101747.84;;;26.49;35.01
54588;BME280;40484;50.198;19.576;2023-06-26T08:07:28;101749.91;;;26.51;31.95
54588;BME280;40484;50.198;19.576;2023-06-26T08:12:54;101732.53;;;26.85;32.48
54588;BME280;40484;50.198;19.576;2023-06-26T08:17:56;101745.19;;;26.51;33.02
54588;BME280;40484;50.198;19.576;2023-06-26T08:22:58;101752.23;;;26.51;33.03
54588;BME280;40484;50.198;19.576;2023-06-26T08:28:00;101737.68;;;26.35;32.99
54588;BME280;40484;50.198;19.576;2023-06-26T08:33:01;101737.15;;;26.41;33.61
54588;BME280;40484;50.198;19.576;2023-06-26T08:38:03;101742.90;;;26.58;32.33
54588;BME280;40484;50.198;19.576;2023-06-26T08:43:05;101746.33;;;26.45;32.26
54588;BME280;40484;50.198;19.576;2023-06-26T08:48:07;101745.02;;;26.41;32.31
54588;BME280;40484;50.198;19.576;2023-06-26T08:58:36;101736.61;;;26.56;30.73
54588;BME280;40484;50.198;19.576;2023-06-26T09:03:39;101737.45;;;26.48;30.12
54588;BME280;40484;50.198;19.576;2023-06-26T09:08:42;101729.02;;;26.79;29.86
54588;BME280;40484;50.198;19.576;2023-06-26T09:13:44;101727.75;;;26.90;29.83
54588;BME280;40484;50.198;19.576;2023-06-26T09:18:46;101728.48;;;26.81;30.31
54588;BME280;40484;50.198;19.576;2023-06-26T09:23:47;101729.00;;;26.55;30.37
54588;BME280;40484;50.198;19.576;2023-06-26T09:28:51;101729.41;;;26.67;30.65
54588;BME280;40484;50.198;19.576;2023-06-26T09:34:19;101722.23;;;26.98;29.82
54588;BME280;40484;50.198;19.576;2023-06-26T09:39:21;101723.22;;;27.46;30.36
54588;BME280;40484;50.198;19.576;2023-06-26T09:44:23;101728.91;;;27.74;28.35
54588;BME280;40484;50.198;19.576;2023-06-26T09:49:24;101722.59;;;27.69;29.75
54588;BME280;40484;50.198;19.576;2023-06-26T09:54:27;101728.81;;;27.61;31.40
54588;BME280;40484;50.198;19.576;2023-06-26T09:59:30;101724.27;;;27.50;30.58
54588;BME280;40484;50.198;19.576;2023-06-26T10:04:33;101717.44;;;27.50;30.83
54588;BME280;40484;50.198;19.576;2023-06-26T10:09:40;101713.42;;;27.80;31.43
54588;BME280;40484;50.198;19.576;2023-06-26T10:14:39;101712.41;;;28.08;30.52
54588;BME280;40484;50.198;19.576;2023-06-26T10:19:43;101709.32;;;27.58;31.08
54588;BME280;40484;50.198;19.576;2023-06-26T10:24:47;101705.38;;;27.29;31.41
54588;BME280;40484;50.198;19.576;2023-06-26T10:29:53;101694.23;;;27.30;32.08
54588;BME280;40484;50.198;19.576;2023-06-26T10:34:56;101687.78;;;27.54;31.19
54588;BME280;40484;50.198;19.576;2023-06-26T10:39:59;101682.61;;;28.06;30.68
54588;BME280;40484;50.198;19.576;2023-06-26T10:45:13;101683.42;;;28.32;30.07
54588;BME280;40484;50.198;19.576;2023-06-26T10:50:27;101677.89;;;28.27;29.20
54588;BME280;40484;50.198;19.576;2023-06-26T10:56:04;101674.16;;;28.47;30.26
54588;BME280;40484;50.198;19.576;2023-06-26T11:01:19;101676.60;;;28.56;28.57
54588;BME280;40484;50.198;19.576;2023-06-26T11:06:24;101670.37;;;28.32;27.86
54588;BME280;40484;50.198;19.576;2023-06-26T11:17:04;101664.89;;;28.76;28.38
54588;BME280;40484;50.198;19.576;2023-06-26T11:22:04;101662.34;;;29.46;29.68
54588;BME280;40484;50.198;19.576;2023-06-26T11:27:06;101650.66;;;29.61;28.34
54588;BME280;40484;50.198;19.576;2023-06-26T11:32:08;101656.20;;;29.71;28.02
54588;BME280;40484;50.198;19.576;2023-06-26T11:37:09;101652.78;;;29.18;27.07
54588;BME280;40484;50.198;19.576;2023-06-26T11:42:12;101651.23;;;29.03;25.81
54588;BME280;40484;50.198;19.576;2023-06-26T11:47:41;101647.87;;;29.18;26.80
54588;BME280;40484;50.198;19.576;2023-06-26T11:52:44;101650.87;;;29.31;26.17
54588;BME280;40484;50.198;19.576;2023-06-26T11:57:50;101649.09;;;29.42;25.83
54588;BME280;40484;50.198;19.576;2023-06-26T12:02:53;101643.24;;;29.59;25.55
54588;BME280;40484;50.198;19.576;2023-06-26T12:07:55;101635.81;;;29.96;26.01
54588;BME280;40484;50.198;19.576;2023-06-26T12:12:58;101624.23;;;29.81;24.43
54588;BME280;40484;50.198;19.576;2023-06-26T12:18:08;101622.26;;;30.25;26.72
54588;BME280;40484;50.198;19.576;2023-06-26T12:23:13;101620.99;;;30.40;28.51
54588;BME280;40484;50.198;19.576;2023-06-26T12:28:16;101611.93;;;30.83;27.18
54588;BME280;40484;50.198;19.576;2023-06-26T12:33:18;101605.27;;;31.42;25.98
54588;BME280;40484;50.198;19.576;2023-06-26T12:38:20;101612.60;;;31.30;26.59
54588;BME280;40484;50.198;19.576;2023-06-26T12:43:25;101617.09;;;31.10;27.31
54588;BME280;40484;50.198;19.576;2023-06-26T12:48:40;101600.91;;;30.63;27.42
54588;BME280;40484;50.198;19.576;2023-06-26T12:53:44;101597.31;;;30.84;28.33
54588;BME280;40484;50.198;19.576;2023-06-26T12:58:45;101600.41;;;31.15;26.67
54588;BME280;40484;50.198;19.576;2023-06-26T13:04:11;101594.41;;;31.17;25.99
54588;BME280;40484;50.198;19.576;2023-06-26T13:09:13;101594.38;;;31.09;27.27
54588;BME280;40484;50.198;19.576;2023-06-26T13:14:14;101588.75;;;30.65;27.31
54588;BME280;40484;50.198;19.576;2023-06-26T13:19:16;101589.23;;;30.50;27.60
54588;BME280;40484;50.198;19.576;2023-06-26T13:24:17;101581.16;;;30.73;26.62
54588;BME280;40484;50.198;19.576;2023-06-26T13:29:19;101578.02;;;31.13;25.98
54588;BME280;40484;50.198;19.576;2023-06-26T13:34:22;101584.22;;;31.76;25.81
54588;BME280;40484;50.198;19.576;2023-06-26T13:39:24;101571.37;;;31.92;24.27
54588;BME280;40484;50.198;19.576;2023-06-26T13:44:26;101571.66;;;31.66;23.45
54588;BME280;40484;50.198;19.576;2023-06-26T13:49:27;101567.48;;;31.13;24.86
54588;BME280;40484;50.198;19.576;2023-06-26T13:54:29;101559.91;;;30.90;24.90
54588;BME280;40484;50.198;19.576;2023-06-26T13:59:31;101555.21;;;30.72;24.97
54588;BME280;40484;50.198;19.576;2023-06-26T14:04:32;101550.22;;;30.85;25.94
54588;BME280;40484;50.198;19.576;2023-06-26T14:09:34;101550.92;;;30.99;25.59
54588;BME280;40484;50.198;19.576;2023-06-26T14:14:35;101554.04;;;30.86;26.01
54588;BME280;40484;50.198;19.576;2023-06-26T14:19:37;101540.40;;;30.99;25.52
54588;BME280;40484;50.198;19.576;2023-06-26T14:24:39;101539.08;;;31.17;25.33
54588;BME280;40484;50.198;19.576;2023-06-26T14:29:40;101536.11;;;30.78;25.83
54588;BME280;40484;50.198;19.576;2023-06-26T14:34:42;101530.65;;;30.17;27.14
54588;BME280;40484;50.198;19.576;2023-06-26T14:39:43;101524.45;;;29.83;28.42
54588;BME280;40484;50.198;19.576;2023-06-26T14:44:45;101526.74;;;29.81;28.70
54588;BME280;40484;50.198;19.576;2023-06-26T14:50:15;101514.63;;;29.83;28.71
54588;BME280;40484;50.198;19.576;2023-06-26T14:55:17;101514.64;;;29.88;28.71
54588;BME280;40484;50.198;19.576;2023-06-26T15:00:19;101509.57;;;29.84;29.00
54588;BME280;40484;50.198;19.576;2023-06-26T15:05:20;101508.20;;;30.07;28.33
54588;BME280;40484;50.198;19.576;2023-06-26T15:10:23;101490.74;;;30.71;27.83
54588;BME280;40484;50.198;19.576;2023-06-26T15:16:42;101486.18;;;31.20;26.87
54588;BME280;40484;50.198;19.576;2023-06-26T15:21:43;101484.41;;;31.72;26.02
54588;BME280;40484;50.198;19.576;2023-06-26T15:26:45;101483.25;;;31.86;26.51
54588;BME280;40484;50.198;19.576;2023-06-26T15:31:47;101473.41;;;31.85;25.82
54588;BME280;40484;50.198;19.576;2023-06-26T15:36:48;101464.98;;;31.58;27.07
54588;BME280;40484;50.198;19.576;2023-06-26T15:41:50;101465.02;;;31.47;27.36
54588;BME280;40484;50.198;19.576;2023-06-26T15:46:51;101461.45;;;31.26;26.07
54588;BME280;40484;50.198;19.576;2023-06-26T15:51:53;101448.60;;;31.20;26.02
54588;BME280;40484;50.198;19.576;2023-06-26T15:56:55;101446.53;;;31.55;26.03
54588;BME280;40484;50.198;19.576;2023-06-26T16:01:56;101444.10;;;31.43;25.37
54588;BME280;40484;50.198;19.576;2023-06-26T16:06:58;101435.35;;;31.50;25.42
54588;BME280;40484;50.198;19.576;2023-06-26T16:11:59;101427.97;;;31.29;25.37
54588;BME280;40484;50.198;19.576;2023-06-26T16:17:01;101424.58;;;31.34;25.33
54588;BME280;40484;50.198;19.576;2023-06-26T16:22:04;101421.55;;;31.20;25.20
54588;BME280;40484;50.198;19.576;2023-06-26T16:27:06;101422.52;;;31.10;25.09
54588;BME280;40484;50.198;19.576;2023-06-26T16:32:08;101420.20;;;31.13;24.97
54588;BME280;40484;50.198;19.576;2023-06-26T16:37:09;101414.32;;;31.17;25.49
54588;BME280;40484;50.198;19.576;2023-06-26T16:42:11;101409.67;;;30.93;24.98
54588;BME280;40484;50.198;19.576;2023-06-26T16:47:13;101409.67;;;30.99;25.36
54588;BME280;40484;50.198;19.576;2023-06-26T16:52:19;101406.94;;;30.89;25.21
54588;BME280;40484;50.198;19.576;2023-06-26T16:57:46;101405.85;;;31.09;25.62
54588;BME280;40484;50.198;19.576;2023-06-26T17:02:47;101406.51;;;31.12;25.03
54588;BME280;40484;50.198;19.576;2023-06-26T17:07:49;101406.63;;;30.71;25.69
54588;BME280;40484;50.198;19.576;2023-06-26T17:12:51;101402.43;;;30.89;25.74
54588;BME280;40484;50.198;19.576;2023-06-26T17:17:52;101413.10;;;30.82;26.48
54588;BME280;40484;50.198;19.576;2023-06-26T17:22:54;101408.02;;;31.06;26.09
54588;BME280;40484;50.198;19.576;2023-06-26T17:27:56;101418.95;;;30.84;26.17
54588;BME280;40484;50.198;19.576;2023-06-26T17:32:59;101419.61;;;30.69;26.77
54588;BME280;40484;50.198;19.576;2023-06-26T17:38:00;101430.02;;;30.99;26.61
54588;BME280;40484;50.198;19.576;2023-06-26T17:43:02;101430.83;;;30.97;26.76
54588;BME280;40484;50.198;19.576;2023-06-26T17:48:04;101420.73;;;30.83;27.00
54588;BME280;40484;50.198;19.576;2023-06-26T17:53:06;101412.47;;;30.55;27.52
54588;BME280;40484;50.198;19.576;2023-06-26T17:58:07;101407.81;;;30.43;27.64
54588;BME280;40484;50.198;19.576;2023-06-26T18:03:09;101411.06;;;30.34;27.91
54588;BME280;40484;50.198;19.576;2023-06-26T18:08:10;101421.33;;;30.49;27.89
54588;BME280;40484;50.198;19.576;2023-06-26T18:13:13;101413.30;;;30.62;28.64
54588;BME280;40484;50.198;19.576;2023-06-26T18:18:14;101414.38;;;30.56;29.32
54588;BME280;40484;50.198;19.576;2023-06-26T18:23:16;101413.51;;;30.27;30.48
54588;BME280;40484;50.198;19.576;2023-06-26T18:28:17;101411.08;;;30.07;30.65
54588;BME280;40484;50.198;19.576;2023-06-26T18:33:19;101407.04;;;29.88;30.95
54588;BME280;40484;50.198;19.576;2023-06-26T18:38:21;101402.02;;;29.63;31.39
54588;BME280;40484;50.198;19.576;2023-06-26T18:43:50;101398.80;;;29.32;32.00
54588;BME280;40484;50.198;19.576;2023-06-26T18:49:02;101402.17;;;29.05;32.42
54588;BME280;40484;50.198;19.576;2023-06-26T18:54:03;101400.08;;;28.72;33.12
54588;BME280;40484;50.198;19.576;2023-06-26T18:59:05;101400.55;;;28.49;33.50
54588;BME280;40484;50.198;19.576;2023-06-26T19:04:07;101401.41;;;28.19;34.25
54588;BME280;40484;50.198;19.576;2023-06-26T19:09:08;101399.85;;;27.93;34.63
54588;BME280;40484;50.198;19.576;2023-06-26T19:14:11;101394.86;;;27.77;34.88
54588;BME280;40484;50.198;19.576;2023-06-26T19:19:12;101391.00;;;27.61;35.05
54588;BME280;40484;50.198;19.576;2023-06-26T19:24:15;101392.21;;;27.41;35.36
54588;BME280;40484;50.198;19.576;2023-06-26T19:29:17;101397.11;;;27.09;35.77
54588;BME280;40484;50.198;19.576;2023-06-26T19:34:18;101389.52;;;26.93;35.89
54588;BME280;40484;50.198;19.576;2023-06-26T19:39:20;101387.85;;;26.74;36.19
54588;BME280;40484;50.198;19.576;2023-06-26T19:44:22;101384.62;;;26.53;36.53
54588;BME280;40484;50.198;19.576;2023-06-26T19:49:25;101383.83;;;26.33;36.87
54588;BME280;40484;50.198;19.576;2023-06-26T19:54:26;101386.03;;;26.28;37.02
54588;BME280;40484;50.198;19.576;2023-06-26T19:59:28;101380.09;;;26.23;37.25
54588;BME280;40484;50.198;19.576;2023-06-26T20:04:30;101381.47;;;26.10;37.34
54588;BME280;40484;50.198;19.576;2023-06-26T20:09:31;101385.59;;;26.05;37.38
54588;BME280;40484;50.198;19.576;2023-06-26T20:14:33;101378.95;;;26.13;37.39
54588;BME280;40484;50.198;19.576;2023-06-26T20:20:02;101370.19;;;26.14;37.52
54588;BME280;40484;50.198;19.576;2023-06-26T20:25:04;101375.06;;;26.14;37.54
54588;BME280;40484;50.198;19.576;2023-06-26T20:30:06;101377.24;;;26.14;37.68
54588;BME280;40484;50.198;19.576;2023-06-26T20:35:08;101376.41;;;26.21;37.68
54588;BME280;40484;50.198;19.576;2023-06-26T20:40:10;101358.55;;;26.16;37.66
54588;BME280;40484;50.198;19.576;2023-06-26T20:45:12;101357.97;;;26.07;37.94
54588;BME280;40484;50.198;19.576;2023-06-26T20:50:14;101356.13;;;26.03;38.06
54588;BME280;40484;50.198;19.576;2023-06-26T20:55:17;101362.20;;;26.08;37.96
54588;BME280;40484;50.198;19.576;2023-06-26T21:00:18;101370.49;;;26.09;37.92
54588;BME280;40484;50.198;19.576;2023-06-26T21:05:21;101364.72;;;26.05;37.85
54588;BME280;40484;50.198;19.576;2023-06-26T21:10:22;101357.09;;;26.04;37.75
54588;BME280;40484;50.198;19.576;2023-06-26T21:15:24;101356.01;;;25.97;37.66
54588;BME280;40484;50.198;19.576;2023-06-26T21:20:25;101349.66;;;25.85;37.82
54588;BME280;40484;50.198;19.576;2023-06-26T21:25:27;101353.16;;;25.79;37.90
54588;BME280;40484;50.198;19.576;2023-06-26T21:30:28;101357.33;;;25.81;37.94
54588;BME280;40484;50.198;19.576;2023-06-26T21:35:32;101348.79;;;25.89;37.85
54588;BME280;40484;50.198;19.576;2023-06-26T21:40:33;101337.94;;;25.81;37.95
54588;BME280;40484;50.198;19.576;2023-06-26T21:45:35;101333.46;;;25.76;38.00
54588;BME280;40484;50.198;19.576;2023-06-26T21:50:37;101323.76;;;25.71;38.19
54588;BME280;40484;50.198;19.576;2023-06-26T21:55:39;101323.87;;;25.58;38.29
54588;BME280;40484;50.198;19.576;2023-06-26T22:00:41;101320.08;;;25.45;38.54
54588;BME280;40484;50.198;19.576;2023-06-26T22:05:42;101306.26;;;25.25;38.73
54588;BME280;40484;50.198;19.576;2023-06-26T22:10:44;101304.78;;;25.21;39.01
54588;BME280;40484;50.198;19.576;2023-06-26T22:15:46;101302.47;;;25.20;39.29
54588;BME280;40484;50.198;19.576;2023-06-26T22:21:13;101299.37;;;25.27;39.21
54588;BME280;40484;50.198;19.576;2023-06-26T22:26:14;101291.69;;;25.27;39.52
54588;BME280;40484;50.198;19.576;2023-06-26T22:31:16;101269.98;;;25.32;39.46
54588;BME280;40484;50.198;19.576;2023-06-26T22:36:18;101269.83;;;25.30;39.45
54588;BME280;40484;50.198;19.576;2023-06-26T22:41:20;101255.88;;;25.25;39.56
54588;BME280;40484;50.198;19.576;2023-06-26T22:46:21;101248.51;;;25.35;39.49
54588;BME280;40484;50.198;19.576;2023-06-26T22:51:23;101251.19;;;25.52;39.07
54588;BME280;40484;50.198;19.576;2023-06-26T22:56:24;101239.41;;;25.61;38.97
54588;BME280;40484;50.198;19.576;2023-06-26T23:01:26;101235.20;;;25.60;38.85
54588;BME280;40484;50.198;19.576;2023-06-26T23:06:27;101236.51;;;25.51;38.80
54588;BME280;40484;50.198;19.576;2023-06-26T23:11:29;101237.52;;;25.34;38.79
54588;BME280;40484;50.198;19.576;2023-06-26T23:16:34;101240.25;;;25.34;38.39
54588;BME280;40484;50.198;19.576;2023-06-26T23:21:36;101245.95;;;25.62;37.17
54588;BME280;40484;50.198;19.576;2023-06-26T23:26:37;101267.39;;;25.78;35.78
54588;BME280;40484;50.198;19.576;2023-06-26T23:31:39;101356.80;;;24.94;37.71
54588;BME280;40484;50.198;19.576;2023-06-26T23:36:41;101370.26;;;23.64;43.91
54588;BME280;40484;50.198;19.576;2023-06-26T23:41:43;101365.13;;;22.87;49.09
54588;BME280;40484;50.198;19.576;2023-06-26T23:46:45;101364.80;;;22.18;52.20
54588;BME280;40484;50.198;19.576;2023-06-26T23:51:46;101341.41;;;21.76;54.69
54588;BME280;40484;50.198;19.576;2023-06-26T23:56:48;101341.91;;;21.75;55.23
